sensor_id;sensor_type;location;lat;lon;timestamp;P1;durP1;ratioP1;P2;durP2;ratioP2
10947;SDS011;5526;42.070;24.752;2022-08-19T00:00:08;8.70;;;7.90;;
10947;SDS011;5526;42.070;24.752;2022-08-19T00:02:39;9.00;;;8.20;;
10947;SDS011;5526;42.070;24.752;2022-08-19T00:05:07;10.10;;;8.55;;
10947;SDS011;5526;42.070;24.752;2022-08-19T00:07:37;9.98;;;9.07;;
10947;SDS011;5526;42.070;24.752;2022-08-19T00:10:04;9.00;;;8.13;;
10947;SDS011;5526;42.070;24.752;2022-08-19T00:12:32;9.77;;;8.95;;
10947;SDS011;5526;42.070;24.752;2022-08-19T00:15:00;9.15;;;8.43;;
10947;SDS011;5526;42.070;24.752;2022-08-19T00:17:27;9.57;;;8.57;;
10947;SDS011;5526;42.070;24.752;2022-08-19T00:19:54;9.30;;;8.32;;
10947;SDS011;5526;42.070;24.752;2022-08-19T00:22:21;9.48;;;8.07;;
10947;SDS011;5526;42.070;24.752;2022-08-19T00:24:49;8.52;;;7.72;;
10947;SDS011;5526;42.070;24.752;2022-08-19T00:27:16;8.88;;;7.97;;
10947;SDS011;5526;42.070;24.752;2022-08-19T00:29:43;9.88;;;8.88;;
10947;SDS011;5526;42.070;24.752;2022-08-19T00:32:10;8.60;;;7.80;;
10947;SDS011;5526;42.070;24.752;2022-08-19T00:34:37;9.52;;;8.48;;
10947;SDS011;5526;42.070;24.752;2022-08-19T00:37:04;9.00;;;8.20;;
10947;SDS011;5526;42.070;24.752;2022-08-19T00:39:31;9.18;;;8.27;;
10947;SDS011;5526;42.070;24.752;2022-08-19T00:41:59;9.05;;;8.15;;
10947;SDS011;5526;42.070;24.752;2022-08-19T00:44:27;7.75;;;7.22;;
10947;SDS011;5526;42.070;24.752;2022-08-19T00:46:56;8.55;;;7.85;;
10947;SDS011;5526;42.070;24.752;2022-08-19T00:49:25;9.90;;;8.95;;
10947;SDS011;5526;42.070;24.752;2022-08-19T00:51:59;9.00;;;8.20;;
10947;SDS011;5526;42.070;24.752;2022-08-19T00:54:29;9.32;;;8.23;;
10947;SDS011;5526;42.070;24.752;2022-08-19T00:56:59;8.95;;;8.07;;
10947;SDS011;5526;42.070;24.752;2022-08-19T00:59:31;9.07;;;8.00;;
10947;SDS011;5526;42.070;24.752;2022-08-19T01:02:01;8.70;;;7.80;;
10947;SDS011;5526;42.070;24.752;2022-08-19T01:04:28;8.80;;;7.95;;
10947;SDS011;5526;42.070;24.752;2022-08-19T01:06:55;8.18;;;7.53;;
10947;SDS011;5526;42.070;24.752;2022-08-19T01:09:22;8.70;;;7.78;;
10947;SDS011;5526;42.070;24.752;2022-08-19T01:11:50;8.60;;;7.90;;
10947;SDS011;5526;42.070;24.752;2022-08-19T01:14:18;8.27;;;7.78;;
10947;SDS011;5526;42.070;24.752;2022-08-19T01:16:46;8.45;;;7.85;;
10947;SDS011;5526;42.070;24.752;2022-08-19T01:19:15;8.32;;;7.50;;
10947;SDS011;5526;42.070;24.752;2022-08-19T01:21:51;8.55;;;7.82;;
10947;SDS011;5526;42.070;24.752;2022-08-19T01:24:23;7.43;;;6.90;;
10947;SDS011;5526;42.070;24.752;2022-08-19T01:26:50;8.23;;;7.43;;
10947;SDS011;5526;42.070;24.752;2022-08-19T01:29:17;8.55;;;7.85;;
10947;SDS011;5526;42.070;24.752;2022-08-19T01:31:44;8.45;;;7.65;;
10947;SDS011;5526;42.070;24.752;2022-08-19T01:34:11;8.50;;;7.90;;
10947;SDS011;5526;42.070;24.752;2022-08-19T01:36:38;8.20;;;7.57;;
10947;SDS011;5526;42.070;24.752;2022-08-19T01:39:09;7.70;;;7.15;;
10947;SDS011;5526;42.070;24.752;2022-08-19T01:41:39;8.73;;;7.40;;
10947;SDS011;5526;42.070;24.752;2022-08-19T01:44:07;7.97;;;7.28;;
10947;SDS011;5526;42.070;24.752;2022-08-19T01:46:35;8.43;;;7.63;;
10947;SDS011;5526;42.070;24.752;2022-08-19T01:49:03;7.88;;;7.18;;
10947;SDS011;5526;42.070;24.752;2022-08-19T01:51:32;7.40;;;6.80;;
10947;SDS011;5526;42.070;24.752;2022-08-19T01:53:59;6.47;;;6.07;;
10947;SDS011;5526;42.070;24.752;2022-08-19T01:56:26;7.78;;;7.18;;
10947;SDS011;5526;42.070;24.752;2022-08-19T01:58:55;8.30;;;7.60;;
10947;SDS011;5526;42.070;24.752;2022-08-19T02:01:24;8.35;;;7.75;;
10947;SDS011;5526;42.070;24.752;2022-08-19T02:03:51;7.68;;;6.97;;
10947;SDS011;5526;42.070;24.752;2022-08-19T02:06:19;8.10;;;7.47;;
10947;SDS011;5526;42.070;24.752;2022-08-19T02:08:46;7.60;;;6.95;;
10947;SDS011;5526;42.070;24.752;2022-08-19T02:11:18;7.88;;;7.22;;
10947;SDS011;5526;42.070;24.752;2022-08-19T02:13:46;7.57;;;6.97;;
10947;SDS011;5526;42.070;24.752;2022-08-19T02:16:16;7.65;;;6.95;;
10947;SDS011;5526;42.070;24.752;2022-08-19T02:18:43;8.10;;;7.32;;
10947;SDS011;5526;42.070;24.752;2022-08-19T02:21:10;7.97;;;7.38;;
10947;SDS011;5526;42.070;24.752;2022-08-19T02:23:38;7.63;;;7.03;;
10947;SDS011;5526;42.070;24.752;2022-08-19T02:26:05;8.20;;;7.50;;
10947;SDS011;5526;42.070;24.752;2022-08-19T02:28:32;8.60;;;7.85;;
10947;SDS011;5526;42.070;24.752;2022-08-19T02:30:59;8.30;;;7.60;;
10947;SDS011;5526;42.070;24.752;2022-08-19T02:33:29;8.48;;;7.68;;
10947;SDS011;5526;42.070;24.752;2022-08-19T02:35:56;9.63;;;8.75;;
10947;SDS011;5526;42.070;24.752;2022-08-19T02:38:23;8.82;;;8.13;;
10947;SDS011;5526;42.070;24.752;2022-08-19T02:40:54;8.65;;;7.95;;
10947;SDS011;5526;42.070;24.752;2022-08-19T02:43:23;8.80;;;8.00;;
10947;SDS011;5526;42.070;24.752;2022-08-19T02:45:51;9.18;;;8.27;;
10947;SDS011;5526;42.070;24.752;2022-08-19T02:48:18;9.52;;;8.57;;
10947;SDS011;5526;42.070;24.752;2022-08-19T02:50:48;9.00;;;8.10;;
10947;SDS011;5526;42.070;24.752;2022-08-19T02:53:21;9.20;;;8.27;;
10947;SDS011;5526;42.070;24.752;2022-08-19T02:55:49;9.52;;;8.32;;
10947;SDS011;5526;42.070;24.752;2022-08-19T02:58:17;10.32;;;8.40;;
10947;SDS011;5526;42.070;24.752;2022-08-19T03:00:45;7.97;;;7.38;;
10947;SDS011;5526;42.070;24.752;2022-08-19T03:03:14;8.10;;;7.38;;
10947;SDS011;5526;42.070;24.752;2022-08-19T03:05:41;7.97;;;7.22;;
10947;SDS011;5526;42.070;24.752;2022-08-19T03:08:10;8.05;;;7.35;;
10947;SDS011;5526;42.070;24.752;2022-08-19T03:10:41;7.50;;;6.80;;
10947;SDS011;5526;42.070;24.752;2022-08-19T03:13:11;7.43;;;6.75;;
10947;SDS011;5526;42.070;24.752;2022-08-19T03:15:40;7.70;;;7.10;;
10947;SDS011;5526;42.070;24.752;2022-08-19T03:18:08;7.30;;;6.70;;
10947;SDS011;5526;42.070;24.752;2022-08-19T03:20:40;7.95;;;7.13;;
10947;SDS011;5526;42.070;24.752;2022-08-19T03:23:10;9.05;;;6.95;;
10947;SDS011;5526;42.070;24.752;2022-08-19T03:25:39;7.57;;;6.75;;
10947;SDS011;5526;42.070;24.752;2022-08-19T03:28:08;7.25;;;6.63;;
10947;SDS011;5526;42.070;24.752;2022-08-19T03:30:37;7.38;;;6.80;;
10947;SDS011;5526;42.070;24.752;2022-08-19T03:33:05;8.00;;;7.13;;
10947;SDS011;5526;42.070;24.752;2022-08-19T03:35:32;7.90;;;7.13;;
10947;SDS011;5526;42.070;24.752;2022-08-19T03:38:01;7.18;;;6.53;;
10947;SDS011;5526;42.070;24.752;2022-08-19T03:40:30;9.10;;;7.28;;
10947;SDS011;5526;42.070;24.752;2022-08-19T03:42:57;8.60;;;7.57;;
10947;SDS011;5526;42.070;24.752;2022-08-19T03:45:24;7.57;;;6.78;;
10947;SDS011;5526;42.070;24.752;2022-08-19T03:47:51;7.80;;;7.00;;
10947;SDS011;5526;42.070;24.752;2022-08-19T03:50:18;7.68;;;6.97;;
10947;SDS011;5526;42.070;24.752;2022-08-19T03:52:47;7.30;;;6.70;;
10947;SDS011;5526;42.070;24.752;2022-08-19T03:55:15;7.57;;;6.95;;
10947;SDS011;5526;42.070;24.752;2022-08-19T03:57:43;7.53;;;6.82;;
10947;SDS011;5526;42.070;24.752;2022-08-19T04:00:13;8.18;;;6.53;;
10947;SDS011;5526;42.070;24.752;2022-08-19T04:02:40;7.00;;;6.50;;
10947;SDS011;5526;42.070;24.752;2022-08-19T04:05:09;7.03;;;6.22;;
10947;SDS011;5526;42.070;24.752;2022-08-19T04:07:36;7.15;;;6.50;;
10947;SDS011;5526;42.070;24.752;2022-08-19T04:10:03;6.65;;;6.15;;
10947;SDS011;5526;42.070;24.752;2022-08-19T04:12:31;7.13;;;6.43;;
10947;SDS011;5526;42.070;24.752;2022-08-19T04:15:00;7.68;;;7.07;;
10947;SDS011;5526;42.070;24.752;2022-08-19T04:17:27;6.93;;;6.43;;
10947;SDS011;5526;42.070;24.752;2022-08-19T04:19:54;6.32;;;5.93;;
10947;SDS011;5526;42.070;24.752;2022-08-19T04:22:21;7.15;;;6.65;;
10947;SDS011;5526;42.070;24.752;2022-08-19T04:24:48;6.75;;;6.03;;
10947;SDS011;5526;42.070;24.752;2022-08-19T04:27:14;6.78;;;6.18;;
10947;SDS011;5526;42.070;24.752;2022-08-19T04:29:41;7.25;;;6.55;;
10947;SDS011;5526;42.070;24.752;2022-08-19T04:32:10;7.40;;;6.70;;
10947;SDS011;5526;42.070;24.752;2022-08-19T04:34:40;7.38;;;6.68;;
10947;SDS011;5526;42.070;24.752;2022-08-19T04:37:08;8.88;;;6.88;;
10947;SDS011;5526;42.070;24.752;2022-08-19T04:39:37;6.85;;;6.18;;
10947;SDS011;5526;42.070;24.752;2022-08-19T04:42:21;6.95;;;6.40;;
10947;SDS011;5526;42.070;24.752;2022-08-19T04:45:07;8.10;;;6.65;;
10947;SDS011;5526;42.070;24.752;2022-08-19T04:47:38;6.97;;;6.35;;
10947;SDS011;5526;42.070;24.752;2022-08-19T04:50:06;10.30;;;7.28;;
10947;SDS011;5526;42.070;24.752;2022-08-19T04:52:36;7.25;;;6.70;;
10947;SDS011;5526;42.070;24.752;2022-08-19T04:55:04;18.52;;;8.48;;
10947;SDS011;5526;42.070;24.752;2022-08-19T04:57:32;12.30;;;7.95;;
10947;SDS011;5526;42.070;24.752;2022-08-19T05:00:00;9.50;;;7.80;;
10947;SDS011;5526;42.070;24.752;2022-08-19T05:02:27;14.75;;;7.43;;
10947;SDS011;5526;42.070;24.752;2022-08-19T05:04:57;15.82;;;8.23;;
10947;SDS011;5526;42.070;24.752;2022-08-19T05:07:26;8.88;;;7.20;;
10947;SDS011;5526;42.070;24.752;2022-08-19T05:09:53;8.38;;;7.47;;
10947;SDS011;5526;42.070;24.752;2022-08-19T05:12:20;8.75;;;7.95;;
10947;SDS011;5526;42.070;24.752;2022-08-19T05:14:47;9.40;;;8.60;;
10947;SDS011;5526;42.070;24.752;2022-08-19T05:17:14;8.93;;;8.05;;
10947;SDS011;5526;42.070;24.752;2022-08-19T05:19:41;10.75;;;8.07;;
10947;SDS011;5526;42.070;24.752;2022-08-19T05:22:27;11.18;;;8.35;;
10947;SDS011;5526;42.070;24.752;2022-08-19T05:25:05;8.68;;;7.93;;
10947;SDS011;5526;42.070;24.752;2022-08-19T05:27:33;9.05;;;8.15;;
10947;SDS011;5526;42.070;24.752;2022-08-19T05:30:00;9.10;;;8.32;;
10947;SDS011;5526;42.070;24.752;2022-08-19T05:32:27;9.25;;;8.45;;
10947;SDS011;5526;42.070;24.752;2022-08-19T05:34:55;9.00;;;8.18;;
10947;SDS011;5526;42.070;24.752;2022-08-19T05:37:22;9.13;;;8.32;;
10947;SDS011;5526;42.070;24.752;2022-08-19T05:39:53;9.07;;;8.18;;
10947;SDS011;5526;42.070;24.752;2022-08-19T05:42:21;9.10;;;8.32;;
10947;SDS011;5526;42.070;24.752;2022-08-19T05:44:49;9.43;;;8.30;;
10947;SDS011;5526;42.070;24.752;2022-08-19T05:47:17;9.60;;;8.70;;
10947;SDS011;5526;42.070;24.752;2022-08-19T05:49:45;9.27;;;8.45;;
10947;SDS011;5526;42.070;24.752;2022-08-19T05:52:13;9.13;;;8.32;;
10947;SDS011;5526;42.070;24.752;2022-08-19T05:54:42;9.48;;;8.63;;
10947;SDS011;5526;42.070;24.752;2022-08-19T05:57:14;8.75;;;8.00;;
10947;SDS011;5526;42.070;24.752;2022-08-19T05:59:41;10.70;;;8.70;;
10947;SDS011;5526;42.070;24.752;2022-08-19T06:02:11;8.88;;;8.07;;
10947;SDS011;5526;42.070;24.752;2022-08-19T06:04:38;9.07;;;8.10;;
10947;SDS011;5526;42.070;24.752;2022-08-19T06:07:07;8.75;;;8.00;;
10947;SDS011;5526;42.070;24.752;2022-08-19T06:09:35;8.93;;;8.10;;
10947;SDS011;5526;42.070;24.752;2022-08-19T06:12:02;9.30;;;8.30;;
10947;SDS011;5526;42.070;24.752;2022-08-19T06:14:31;9.32;;;8.43;;
10947;SDS011;5526;42.070;24.752;2022-08-19T06:17:00;9.00;;;8.27;;
10947;SDS011;5526;42.070;24.752;2022-08-19T06:19:28;10.70;;;8.27;;
10947;SDS011;5526;42.070;24.752;2022-08-19T06:21:56;9.80;;;9.00;;
10947;SDS011;5526;42.070;24.752;2022-08-19T06:24:26;10.70;;;8.00;;
10947;SDS011;5526;42.070;24.752;2022-08-19T06:26:55;9.43;;;8.13;;
10947;SDS011;5526;42.070;24.752;2022-08-19T06:29:24;9.93;;;9.02;;
10947;SDS011;5526;42.070;24.752;2022-08-19T06:31:54;9.38;;;8.40;;
10947;SDS011;5526;42.070;24.752;2022-08-19T06:34:23;9.40;;;8.50;;
10947;SDS011;5526;42.070;24.752;2022-08-19T06:36:52;12.68;;;8.40;;
10947;SDS011;5526;42.070;24.752;2022-08-19T06:39:21;8.80;;;8.00;;
10947;SDS011;5526;42.070;24.752;2022-08-19T06:41:53;9.13;;;8.35;;
10947;SDS011;5526;42.070;24.752;2022-08-19T06:44:22;9.48;;;8.65;;
10947;SDS011;5526;42.070;24.752;2022-08-19T06:46:52;9.40;;;8.25;;
10947;SDS011;5526;42.070;24.752;2022-08-19T06:49:21;8.98;;;8.23;;
10947;SDS011;5526;42.070;24.752;2022-08-19T06:51:48;9.15;;;8.38;;
10947;SDS011;5526;42.070;24.752;2022-08-19T06:54:16;9.23;;;8.32;;
10947;SDS011;5526;42.070;24.752;2022-08-19T06:56:45;8.77;;;8.15;;
10947;SDS011;5526;42.070;24.752;2022-08-19T06:59:13;8.77;;;8.00;;
10947;SDS011;5526;42.070;24.752;2022-08-19T07:01:43;8.75;;;7.78;;
10947;SDS011;5526;42.070;24.752;2022-08-19T07:04:13;9.10;;;8.25;;
10947;SDS011;5526;42.070;24.752;2022-08-19T07:06:42;9.20;;;8.30;;
10947;SDS011;5526;42.070;24.752;2022-08-19T07:09:10;9.07;;;8.30;;
10947;SDS011;5526;42.070;24.752;2022-08-19T07:11:41;9.02;;;8.20;;
10947;SDS011;5526;42.070;24.752;2022-08-19T07:14:10;8.25;;;7.65;;
10947;SDS011;5526;42.070;24.752;2022-08-19T07:16:39;9.95;;;8.75;;
10947;SDS011;5526;42.070;24.752;2022-08-19T07:19:06;9.43;;;8.63;;
10947;SDS011;5526;42.070;24.752;2022-08-19T07:21:34;9.70;;;8.98;;
10947;SDS011;5526;42.070;24.752;2022-08-19T07:24:02;9.30;;;8.48;;
10947;SDS011;5526;42.070;24.752;2022-08-19T07:26:32;9.63;;;8.68;;
10947;SDS011;5526;42.070;24.752;2022-08-19T07:29:00;9.63;;;8.68;;
10947;SDS011;5526;42.070;24.752;2022-08-19T07:31:27;11.75;;;8.93;;
10947;SDS011;5526;42.070;24.752;2022-08-19T07:33:54;9.32;;;8.60;;
10947;SDS011;5526;42.070;24.752;2022-08-19T07:36:23;9.15;;;8.15;;
10947;SDS011;5526;42.070;24.752;2022-08-19T07:38:59;12.00;;;8.75;;
10947;SDS011;5526;42.070;24.752;2022-08-19T07:41:28;9.02;;;8.25;;
10947;SDS011;5526;42.070;24.752;2022-08-19T07:43:57;15.65;;;8.23;;
10947;SDS011;5526;42.070;24.752;2022-08-19T07:46:29;9.30;;;8.48;;
10947;SDS011;5526;42.070;24.752;2022-08-19T07:48:57;9.15;;;8.35;;
10947;SDS011;5526;42.070;24.752;2022-08-19T07:51:25;8.98;;;8.27;;
10947;SDS011;5526;42.070;24.752;2022-08-19T07:53:53;9.30;;;8.55;;
10947;SDS011;5526;42.070;24.752;2022-08-19T07:56:22;8.70;;;7.95;;
10947;SDS011;5526;42.070;24.752;2022-08-19T07:58:52;8.15;;;7.55;;
10947;SDS011;5526;42.070;24.752;2022-08-19T08:01:20;7.82;;;7.10;;
10947;SDS011;5526;42.070;24.752;2022-08-19T08:03:49;13.52;;;7.55;;
10947;SDS011;5526;42.070;24.752;2022-08-19T08:06:35;8.48;;;7.47;;
10947;SDS011;5526;42.070;24.752;2022-08-19T08:09:21;6.90;;;6.47;;
10947;SDS011;5526;42.070;24.752;2022-08-19T08:11:52;7.22;;;6.55;;
10947;SDS011;5526;42.070;24.752;2022-08-19T08:14:23;7.18;;;6.53;;
10947;SDS011;5526;42.070;24.752;2022-08-19T08:16:51;7.30;;;6.65;;
10947;SDS011;5526;42.070;24.752;2022-08-19T08:19:19;7.60;;;6.97;;
10947;SDS011;5526;42.070;24.752;2022-08-19T08:21:49;7.10;;;6.50;;
10947;SDS011;5526;42.070;24.752;2022-08-19T08:24:17;7.28;;;6.75;;
10947;SDS011;5526;42.070;24.752;2022-08-19T08:26:45;7.55;;;7.03;;
10947;SDS011;5526;42.070;24.752;2022-08-19T08:29:14;6.82;;;6.32;;
10947;SDS011;5526;42.070;24.752;2022-08-19T08:31:42;6.70;;;6.20;;
10947;SDS011;5526;42.070;24.752;2022-08-19T08:34:11;7.10;;;6.50;;
10947;SDS011;5526;42.070;24.752;2022-08-19T08:36:39;6.93;;;6.50;;
10947;SDS011;5526;42.070;24.752;2022-08-19T08:39:07;6.97;;;6.32;;
10947;SDS011;5526;42.070;24.752;2022-08-19T08:41:37;7.00;;;6.50;;
10947;SDS011;5526;42.070;24.752;2022-08-19T08:44:20;6.88;;;6.25;;
10947;SDS011;5526;42.070;24.752;2022-08-19T08:46:53;6.68;;;6.13;;
10947;SDS011;5526;42.070;24.752;2022-08-19T08:49:26;6.45;;;5.95;;
10947;SDS011;5526;42.070;24.752;2022-08-19T08:52:03;6.50;;;6.00;;
10947;SDS011;5526;42.070;24.752;2022-08-19T08:54:33;6.75;;;6.25;;
10947;SDS011;5526;42.070;24.752;2022-08-19T08:57:04;6.78;;;6.28;;
10947;SDS011;5526;42.070;24.752;2022-08-19T08:59:39;6.47;;;5.97;;
10947;SDS011;5526;42.070;24.752;2022-08-19T09:02:08;6.53;;;5.80;;
10947;SDS011;5526;42.070;24.752;2022-08-19T09:04:36;6.30;;;5.90;;
10947;SDS011;5526;42.070;24.752;2022-08-19T09:07:11;6.43;;;5.93;;
10947;SDS011;5526;42.070;24.752;2022-08-19T09:09:48;6.55;;;6.05;;
10947;SDS011;5526;42.070;24.752;2022-08-19T09:12:18;6.60;;;6.00;;
10947;SDS011;5526;42.070;24.752;2022-08-19T09:14:56;6.53;;;6.10;;
10947;SDS011;5526;42.070;24.752;2022-08-19T09:17:27;6.18;;;5.72;;
10947;SDS011;5526;42.070;24.752;2022-08-19T09:19:59;6.40;;;5.93;;
10947;SDS011;5526;42.070;24.752;2022-08-19T09:22:30;6.90;;;6.28;;
10947;SDS011;5526;42.070;24.752;2022-08-19T09:24:57;6.80;;;6.30;;
10947;SDS011;5526;42.070;24.752;2022-08-19T09:27:24;6.03;;;5.47;;
10947;SDS011;5526;42.070;24.752;2022-08-19T09:29:52;6.20;;;5.80;;
10947;SDS011;5526;42.070;24.752;2022-08-19T09:32:21;5.82;;;5.53;;
10947;SDS011;5526;42.070;24.752;2022-08-19T09:34:49;5.85;;;5.45;;
10947;SDS011;5526;42.070;24.752;2022-08-19T09:37:19;5.72;;;5.35;;
10947;SDS011;5526;42.070;24.752;2022-08-19T09:39:47;8.88;;;5.35;;
10947;SDS011;5526;42.070;24.752;2022-08-19T09:42:14;6.32;;;5.93;;
10947;SDS011;5526;42.070;24.752;2022-08-19T09:44:41;6.25;;;5.57;;
10947;SDS011;5526;42.070;24.752;2022-08-19T09:47:09;5.57;;;5.20;;
10947;SDS011;5526;42.070;24.752;2022-08-19T09:49:39;6.60;;;5.97;;
10947;SDS011;5526;42.070;24.752;2022-08-19T09:52:07;6.05;;;5.57;;
10947;SDS011;5526;42.070;24.752;2022-08-19T09:54:35;5.97;;;5.45;;
10947;SDS011;5526;42.070;24.752;2022-08-19T09:57:02;5.82;;;5.43;;
10947;SDS011;5526;42.070;24.752;2022-08-19T09:59:29;11.63;;;6.10;;
10947;SDS011;5526;42.070;24.752;2022-08-19T10:01:57;6.43;;;5.95;;
10947;SDS011;5526;42.070;24.752;2022-08-19T10:04:24;6.53;;;5.82;;
10947;SDS011;5526;42.070;24.752;2022-08-19T10:07:13;6.18;;;5.88;;
10947;SDS011;5526;42.070;24.752;2022-08-19T10:09:41;5.85;;;5.45;;
10947;SDS011;5526;42.070;24.752;2022-08-19T10:12:08;10.82;;;6.65;;
10947;SDS011;5526;42.070;24.752;2022-08-19T10:14:37;6.07;;;5.50;;
10947;SDS011;5526;42.070;24.752;2022-08-19T10:17:04;5.93;;;5.40;;
10947;SDS011;5526;42.070;24.752;2022-08-19T10:19:31;5.97;;;5.63;;
10947;SDS011;5526;42.070;24.752;2022-08-19T10:22:02;5.93;;;5.53;;
10947;SDS011;5526;42.070;24.752;2022-08-19T10:24:32;5.88;;;5.50;;
10947;SDS011;5526;42.070;24.752;2022-08-19T10:26:59;5.95;;;5.55;;
10947;SDS011;5526;42.070;24.752;2022-08-19T10:29:28;6.30;;;5.90;;
10947;SDS011;5526;42.070;24.752;2022-08-19T10:31:57;5.70;;;5.40;;
10947;SDS011;5526;42.070;24.752;2022-08-19T10:34:25;5.53;;;5.22;;
10947;SDS011;5526;42.070;24.752;2022-08-19T10:36:53;6.30;;;5.90;;
10947;SDS011;5526;42.070;24.752;2022-08-19T10:39:21;5.88;;;5.38;;
10947;SDS011;5526;42.070;24.752;2022-08-19T10:41:50;5.70;;;5.40;;
10947;SDS011;5526;42.070;24.752;2022-08-19T10:44:17;6.65;;;6.13;;
10947;SDS011;5526;42.070;24.752;2022-08-19T10:46:44;6.80;;;6.05;;
10947;SDS011;5526;42.070;24.752;2022-08-19T10:49:12;6.07;;;5.68;;
10947;SDS011;5526;42.070;24.752;2022-08-19T10:51:39;6.22;;;5.70;;
10947;SDS011;5526;42.070;24.752;2022-08-19T10:54:25;5.80;;;5.47;;
10947;SDS011;5526;42.070;24.752;2022-08-19T10:57:14;6.45;;;5.40;;
10947;SDS011;5526;42.070;24.752;2022-08-19T10:59:41;5.70;;;5.30;;
10947;SDS011;5526;42.070;24.752;2022-08-19T11:02:09;6.32;;;5.72;;
10947;SDS011;5526;42.070;24.752;2022-08-19T11:04:37;6.05;;;5.65;;
10947;SDS011;5526;42.070;24.752;2022-08-19T11:07:05;5.75;;;5.35;;
10947;SDS011;5526;42.070;24.752;2022-08-19T11:09:36;5.70;;;5.28;;
10947;SDS011;5526;42.070;24.752;2022-08-19T11:12:04;6.05;;;5.55;;
10947;SDS011;5526;42.070;24.752;2022-08-19T11:14:33;5.80;;;5.40;;
10947;SDS011;5526;42.070;24.752;2022-08-19T11:17:01;6.18;;;5.68;;
10947;SDS011;5526;42.070;24.752;2022-08-19T11:19:29;6.07;;;5.60;;
10947;SDS011;5526;42.070;24.752;2022-08-19T11:21:56;6.30;;;5.80;;
10947;SDS011;5526;42.070;24.752;2022-08-19T11:24:26;6.20;;;5.70;;
10947;SDS011;5526;42.070;24.752;2022-08-19T11:26:54;5.70;;;5.30;;
10947;SDS011;5526;42.070;24.752;2022-08-19T11:29:27;5.70;;;5.30;;
10947;SDS011;5526;42.070;24.752;2022-08-19T11:31:56;6.13;;;5.72;;
10947;SDS011;5526;42.070;24.752;2022-08-19T11:34:24;6.53;;;6.00;;
10947;SDS011;5526;42.070;24.752;2022-08-19T11:36:53;6.47;;;5.78;;
10947;SDS011;5526;42.070;24.752;2022-08-19T11:39:23;6.07;;;5.65;;
10947;SDS011;5526;42.070;24.752;2022-08-19T11:41:51;6.40;;;5.85;;
10947;SDS011;5526;42.070;24.752;2022-08-19T11:44:18;9.05;;;6.00;;
10947;SDS011;5526;42.070;24.752;2022-08-19T11:46:45;7.25;;;5.75;;
10947;SDS011;5526;42.070;24.752;2022-08-19T11:49:15;5.95;;;5.45;;
10947;SDS011;5526;42.070;24.752;2022-08-19T11:51:44;6.15;;;5.80;;
10947;SDS011;5526;42.070;24.752;2022-08-19T11:54:12;6.03;;;5.60;;
10947;SDS011;5526;42.070;24.752;2022-08-19T11:56:42;5.70;;;5.40;;
10947;SDS011;5526;42.070;24.752;2022-08-19T11:59:11;6.35;;;5.70;;
10947;SDS011;5526;42.070;24.752;2022-08-19T12:01:38;6.22;;;5.70;;
10947;SDS011;5526;42.070;24.752;2022-08-19T12:04:07;6.00;;;5.47;;
10947;SDS011;5526;42.070;24.752;2022-08-19T12:06:37;7.55;;;5.32;;
10947;SDS011;5526;42.070;24.752;2022-08-19T12:09:05;5.57;;;5.20;;
10947;SDS011;5526;42.070;24.752;2022-08-19T12:11:34;7.75;;;5.85;;
10947;SDS011;5526;42.070;24.752;2022-08-19T12:14:02;6.10;;;5.70;;
10947;SDS011;5526;42.070;24.752;2022-08-19T12:16:30;58.05;;;9.32;;
10947;SDS011;5526;42.070;24.752;2022-08-19T12:18:58;6.00;;;5.50;;
10947;SDS011;5526;42.070;24.752;2022-08-19T12:21:29;5.95;;;5.55;;
10947;SDS011;5526;42.070;24.752;2022-08-19T12:23:59;5.90;;;5.50;;
10947;SDS011;5526;42.070;24.752;2022-08-19T12:26:27;5.65;;;5.32;;
10947;SDS011;5526;42.070;24.752;2022-08-19T12:28:56;6.18;;;5.55;;
10947;SDS011;5526;42.070;24.752;2022-08-19T12:31:24;5.63;;;5.32;;
10947;SDS011;5526;42.070;24.752;2022-08-19T12:33:51;5.75;;;5.35;;
10947;SDS011;5526;42.070;24.752;2022-08-19T12:36:18;5.90;;;5.60;;
10947;SDS011;5526;42.070;24.752;2022-08-19T12:38:47;6.50;;;6.00;;
10947;SDS011;5526;42.070;24.752;2022-08-19T12:41:15;5.90;;;5.50;;
10947;SDS011;5526;42.070;24.752;2022-08-19T12:43:43;6.40;;;5.80;;
10947;SDS011;5526;42.070;24.752;2022-08-19T12:46:11;6.43;;;5.93;;
10947;SDS011;5526;42.070;24.752;2022-08-19T12:48:39;6.50;;;6.20;;
10947;SDS011;5526;42.070;24.752;2022-08-19T12:51:08;6.30;;;5.85;;
10947;SDS011;5526;42.070;24.752;2022-08-19T12:53:37;7.07;;;6.55;;
10947;SDS011;5526;42.070;24.752;2022-08-19T12:56:05;7.07;;;6.47;;
10947;SDS011;5526;42.070;24.752;2022-08-19T12:58:33;7.88;;;7.05;;
10947;SDS011;5526;42.070;24.752;2022-08-19T13:01:05;6.40;;;5.93;;
10947;SDS011;5526;42.070;24.752;2022-08-19T13:03:32;6.20;;;5.90;;
10947;SDS011;5526;42.070;24.752;2022-08-19T13:06:00;6.03;;;5.60;;
10947;SDS011;5526;42.070;24.752;2022-08-19T13:08:27;8.20;;;5.88;;
10947;SDS011;5526;42.070;24.752;2022-08-19T13:10:54;6.53;;;6.10;;
10947;SDS011;5526;42.070;24.752;2022-08-19T13:13:21;6.10;;;5.70;;
10947;SDS011;5526;42.070;24.752;2022-08-19T13:15:49;6.18;;;5.88;;
10947;SDS011;5526;42.070;24.752;2022-08-19T13:18:16;6.70;;;6.20;;
10947;SDS011;5526;42.070;24.752;2022-08-19T13:20:43;6.68;;;6.15;;
10947;SDS011;5526;42.070;24.752;2022-08-19T13:23:10;6.53;;;6.00;;
10947;SDS011;5526;42.070;24.752;2022-08-19T13:25:37;10.32;;;6.65;;
10947;SDS011;5526;42.070;24.752;2022-08-19T13:28:04;6.50;;;6.05;;
10947;SDS011;5526;42.070;24.752;2022-08-19T13:30:31;5.95;;;5.60;;
10947;SDS011;5526;42.070;24.752;2022-08-19T13:33:17;5.82;;;5.32;;
10947;SDS011;5526;42.070;24.752;2022-08-19T13:35:46;5.93;;;5.47;;
10947;SDS011;5526;42.070;24.752;2022-08-19T13:38:15;5.93;;;5.53;;
10947;SDS011;5526;42.070;24.752;2022-08-19T13:40:43;6.43;;;5.95;;
10947;SDS011;5526;42.070;24.752;2022-08-19T13:43:11;6.07;;;5.68;;
10947;SDS011;5526;42.070;24.752;2022-08-19T13:45:39;5.60;;;5.20;;
10947;SDS011;5526;42.070;24.752;2022-08-19T13:48:06;5.55;;;5.28;;
10947;SDS011;5526;42.070;24.752;2022-08-19T13:50:37;6.30;;;5.90;;
10947;SDS011;5526;42.070;24.752;2022-08-19T13:53:06;6.45;;;5.90;;
10947;SDS011;5526;42.070;24.752;2022-08-19T13:55:34;5.68;;;5.30;;
10947;SDS011;5526;42.070;24.752;2022-08-19T13:58:01;6.25;;;5.70;;
10947;SDS011;5526;42.070;24.752;2022-08-19T14:00:34;6.47;;;6.07;;
10947;SDS011;5526;42.070;24.752;2022-08-19T14:03:02;6.57;;;6.07;;
10947;SDS011;5526;42.070;24.752;2022-08-19T14:05:31;7.20;;;6.50;;
10947;SDS011;5526;42.070;24.752;2022-08-19T14:08:00;6.93;;;6.43;;
10947;SDS011;5526;42.070;24.752;2022-08-19T14:10:27;6.85;;;6.35;;
10947;SDS011;5526;42.070;24.752;2022-08-19T14:12:59;6.82;;;6.38;;
10947;SDS011;5526;42.070;24.752;2022-08-19T14:15:28;6.65;;;6.15;;
10947;SDS011;5526;42.070;24.752;2022-08-19T14:17:57;7.40;;;6.90;;
10947;SDS011;5526;42.070;24.752;2022-08-19T14:20:24;6.70;;;6.20;;
10947;SDS011;5526;42.070;24.752;2022-08-19T14:22:52;6.97;;;6.38;;
10947;SDS011;5526;42.070;24.752;2022-08-19T14:25:22;6.63;;;6.22;;
10947;SDS011;5526;42.070;24.752;2022-08-19T14:27:51;7.97;;;6.22;;
10947;SDS011;5526;42.070;24.752;2022-08-19T14:30:19;8.57;;;6.07;;
10947;SDS011;5526;42.070;24.752;2022-08-19T14:32:48;6.18;;;5.68;;
10947;SDS011;5526;42.070;24.752;2022-08-19T14:35:15;6.68;;;6.18;;
10947;SDS011;5526;42.070;24.752;2022-08-19T14:37:43;6.50;;;6.10;;
10947;SDS011;5526;42.070;24.752;2022-08-19T14:40:12;5.93;;;5.63;;
10947;SDS011;5526;42.070;24.752;2022-08-19T14:42:42;7.38;;;5.80;;
10947;SDS011;5526;42.070;24.752;2022-08-19T14:45:10;6.07;;;5.72;;
10947;SDS011;5526;42.070;24.752;2022-08-19T14:47:38;6.45;;;6.00;;
10947;SDS011;5526;42.070;24.752;2022-08-19T14:50:06;6.38;;;5.88;;
10947;SDS011;5526;42.070;24.752;2022-08-19T14:52:35;6.00;;;5.57;;
10947;SDS011;5526;42.070;24.752;2022-08-19T14:55:02;5.97;;;5.68;;
10947;SDS011;5526;42.070;24.752;2022-08-19T14:57:30;6.63;;;5.70;;